Time;durP1;ratioP1;P1;durP2;ratioP2;P2;SDS_P1;SDS_P2;PMS_P1;PMS_P2;Temp;Humidity;BMP_temperature;BMP_pressure;BME280_temperature;BME280_humidity;BME280_pressure;Samples;Min_cycle;Max_cycle;Signal;HPM_P1;HPM_P2
2021/05/10 00:01:01;;;;;;;8.93;3.10;;;15.60;99.90;;;;;;4982770;28;20096;-66
2021/05/10 00:03:28;;;;;;;8.95;3.15;;;15.60;99.90;;;;;;4983671;28;20506;-65
2021/05/10 00:05:56;;;;;;;4.95;2.90;;;15.50;99.90;;;;;;4981182;28;20479;-65
2021/05/10 00:08:25;;;;;;;8.00;3.15;;;15.40;99.90;;;;;;4979932;28;20060;-66
2021/05/10 00:10:52;;;;;;;5.28;2.85;;;15.40;99.90;;;;;;4983873;28;20046;-65
2021/05/10 00:13:19;;;;;;;6.43;2.97;;;15.50;99.90;;;;;;4980551;28;20057;-66
2021/05/10 00:15:46;;;;;;;4.97;2.58;;;15.50;99.90;;;;;;4978071;28;20088;-65
2021/05/10 00:18:13;;;;;;;5.47;2.53;;;15.50;99.90;;;;;;4978752;28;20049;-64
2021/05/10 00:20:41;;;;;;;6.65;2.83;;;15.60;99.90;;;;;;4980201;28;20053;-64
2021/05/10 00:23:09;;;;;;;7.22;2.60;;;15.60;99.90;;;;;;4982355;28;20513;-64
2021/05/10 00:25:37;;;;;;;5.53;2.47;;;15.70;99.90;;;;;;4983378;28;20057;-66
2021/05/10 00:28:04;;;;;;;5.88;3.10;;;15.60;99.90;;;;;;4979166;28;21362;-65
2021/05/10 00:30:31;;;;;;;7.78;3.40;;;15.50;99.90;;;;;;4983699;28;20135;-65
2021/05/10 00:32:58;;;;;;;8.40;3.40;;;15.50;99.90;;;;;;4979302;28;20061;-65
2021/05/10 00:35:25;;;;;;;6.68;3.15;;;15.40;99.90;;;;;;4981694;28;20215;-65
2021/05/10 00:37:52;;;;;;;6.68;3.70;;;15.40;99.90;;;;;;4980708;28;20509;-65
2021/05/10 00:40:21;;;;;;;10.43;3.67;;;15.30;99.90;;;;;;4982528;28;20132;-65
2021/05/10 00:42:49;;;;;;;8.35;3.53;;;15.10;99.90;;;;;;4981286;28;20065;-65
2021/05/10 00:45:16;;;;;;;7.40;4.00;;;15.00;99.90;;;;;;4980868;28;20093;-65
2021/05/10 00:47:43;;;;;;;9.48;3.38;;;15.00;99.90;;;;;;4982614;28;20061;-65
2021/05/10 00:50:11;;;;;;;8.45;3.50;;;15.00;99.90;;;;;;4981330;28;20517;-64
2021/05/10 00:52:38;;;;;;;7.38;3.17;;;14.80;99.90;;;;;;4981935;28;20822;-65
2021/05/10 00:55:07;;;;;;;6.15;3.10;;;15.00;99.90;;;;;;4978763;28;20054;-65
2021/05/10 00:57:37;;;;;;;5.88;3.10;;;15.00;99.90;;;;;;4978428;28;20530;-65
2021/05/10 01:00:06;;;;;;;8.52;3.67;;;14.90;99.90;;;;;;4982292;28;20556;-65
2021/05/10 01:02:33;;;;;;;9.07;3.20;;;15.00;99.90;;;;;;4983668;28;20057;-65
2021/05/10 01:04:59;;;;;;;6.82;3.15;;;14.90;99.90;;;;;;4981289;28;20115;-65
2021/05/10 01:07:26;;;;;;;;;;;14.80;99.90;;;;;;4985351;28;20053;-65
2021/05/10 01:09:52;;;;;;;6.85;3.47;;;14.80;99.90;;;;;;4984165;28;19929;-64
2021/05/10 01:12:19;;;;;;;9.65;4.55;;;14.70;99.90;;;;;;4984913;28;20164;-65
2021/05/10 01:14:45;;;;;;;6.72;3.72;;;14.80;99.90;;;;;;4985977;28;20526;-64
2021/05/10 01:17:13;;;;;;;10.90;4.10;;;14.90;99.90;;;;;;4985880;28;20085;-64
2021/05/10 01:19:40;;;;;;;20.83;5.28;;;14.90;99.90;;;;;;4986310;28;20072;-64
2021/05/10 01:22:08;;;;;;;11.00;4.32;;;14.80;99.90;;;;;;4987356;28;20057;-64
2021/05/10 01:24:36;;;;;;;10.73;3.85;;;14.70;99.90;;;;;;4984969;28;20133;-64
2021/05/10 01:27:03;;;;;;;10.07;4.53;;;14.50;99.90;;;;;;4983949;28;20053;-64
2021/05/10 01:29:30;;;;;;;10.25;4.00;;;14.50;99.90;;;;;;4982334;28;20050;-64
2021/05/10 01:31:56;;;;;;;9.43;4.70;;;14.50;99.90;;;;;;4985721;28;20058;-64
2021/05/10 01:34:23;;;;;;;;;;;14.50;99.90;;;;;;4986038;28;20046;-64
2021/05/10 01:36:49;;;;;;;11.13;4.43;;;14.50;99.90;;;;;;4984110;28;20402;-64
2021/05/10 01:39:15;;;;;;;;;;;14.40;99.90;;;;;;4985301;28;20060;-64
2021/05/10 01:41:43;;;;;;;9.43;3.95;;;14.40;99.90;;;;;;4985862;28;20035;-64
2021/05/10 01:44:10;;;;;;;8.15;4.13;;;14.30;99.90;;;;;;4985335;28;20133;-64
2021/05/10 01:46:36;;;;;;;9.13;4.82;;;14.30;99.90;;;;;;4983841;28;20093;-64
2021/05/10 01:49:03;;;;;;;;;;;14.30;99.90;;;;;;4985594;28;20478;-64
2021/05/10 01:51:29;;;;;;;11.23;4.00;;;14.20;99.90;;;;;;4983895;28;19976;-64
2021/05/10 01:53:56;;;;;;;16.27;4.45;;;14.20;99.90;;;;;;4983415;28;20069;-64
2021/05/10 01:56:22;;;;;;;;;;;14.10;99.90;;;;;;4984817;28;20113;-64
2021/05/10 01:58:53;;;;;;;11.98;4.75;;;14.10;99.90;;;;;;4981707;28;20366;-64
2021/05/10 02:01:21;;;;;;;9.23;4.60;;;14.00;99.90;;;;;;4983994;28;20049;-64
2021/05/10 02:03:47;;;;;;;11.63;4.40;;;14.00;99.90;;;;;;4984191;28;20076;-64
2021/05/10 02:06:14;;;;;;;10.70;4.22;;;13.90;99.90;;;;;;4980457;28;20565;-64
2021/05/10 02:08:41;;;;;;;10.65;4.70;;;13.80;99.90;;;;;;4982014;28;20060;-64
2021/05/10 02:11:08;;;;;;;9.68;4.75;;;13.80;99.90;;;;;;4982868;28;20078;-64
2021/05/10 02:13:34;;;;;;;8.68;4.35;;;13.80;99.90;;;;;;4981438;28;20533;-64
2021/05/10 02:16:02;;;;;;;12.95;4.63;;;13.80;99.90;;;;;;4985022;28;20042;-64
2021/05/10 02:18:31;;;;;;;9.30;3.85;;;13.80;99.90;;;;;;4983840;28;20049;-64
2021/05/10 02:20:58;;;;;;;8.65;4.03;;;13.80;99.90;;;;;;4984393;28;20052;-64
2021/05/10 02:23:26;;;;;;;8.60;4.80;;;13.80;99.90;;;;;;4984805;28;20077;-64
2021/05/10 02:25:54;;;;;;;12.15;3.90;;;13.70;99.90;;;;;;4985114;28;20531;-64
2021/05/10 02:28:23;;;;;;;7.28;3.45;;;13.60;99.90;;;;;;4982357;28;20053;-64
2021/05/10 02:30:51;;;;;;;9.27;4.63;;;13.70;99.90;;;;;;4984891;28;20100;-64
2021/05/10 02:33:21;;;;;;;11.65;4.38;;;13.70;99.90;;;;;;4981921;28;20060;-64
2021/05/10 02:35:50;;;;;;;12.10;4.88;;;13.70;99.90;;;;;;4984437;28;20256;-64
2021/05/10 02:38:17;;;;;;;8.38;4.47;;;13.50;99.90;;;;;;4982079;28;20540;-64
2021/05/10 02:40:44;;;;;;;7.43;3.85;;;13.40;99.90;;;;;;4985239;28;20112;-64
2021/05/10 02:43:10;;;;;;;11.88;4.78;;;13.60;99.90;;;;;;4982899;28;20050;-64
2021/05/10 02:45:37;;;;;;;7.35;3.80;;;13.60;99.90;;;;;;4982640;28;20081;-64
2021/05/10 02:48:04;;;;;;;7.85;4.13;;;13.50;99.90;;;;;;4979988;28;20049;-64
2021/05/10 02:50:32;;;;;;;10.13;3.90;;;13.50;99.90;;;;;;4981900;28;20080;-64
2021/05/10 02:53:00;;;;;;;14.73;4.35;;;13.50;99.90;;;;;;4984490;28;20046;-64
2021/05/10 02:55:27;;;;;;;8.40;4.18;;;13.40;99.90;;;;;;4982753;28;20050;-64
2021/05/10 02:57:54;;;;;;;10.75;4.15;;;13.40;99.90;;;;;;4981648;28;20049;-65
2021/05/10 03:00:23;;;;;;;10.00;4.13;;;13.30;99.90;;;;;;4986154;28;20049;-64
2021/05/10 03:02:50;;;;;;;9.40;4.00;;;13.50;99.90;;;;;;4984386;28;20571;-64
2021/05/10 03:05:18;;;;;;;9.60;4.25;;;13.40;99.90;;;;;;4984533;28;20080;-64
2021/05/10 03:07:45;;;;;;;8.45;4.40;;;13.30;99.90;;;;;;4984198;28;20057;-64
2021/05/10 03:10:14;;;;;;;10.63;4.32;;;13.10;99.90;;;;;;4982300;28;20081;-64
2021/05/10 03:12:41;;;;;;;7.15;3.72;;;13.00;99.90;;;;;;4985542;28;20415;-64
2021/05/10 03:15:09;;;;;;;7.40;4.10;;;12.90;99.90;;;;;;4982044;28;20085;-64
2021/05/10 03:17:36;;;;;;;10.82;4.68;;;13.20;99.90;;;;;;4982696;28;20595;-64
2021/05/10 03:20:05;;;;;;;11.55;5.07;;;13.20;99.90;;;;;;4980493;28;20046;-64
2021/05/10 03:22:31;;;;;;;9.02;4.55;;;13.20;99.90;;;;;;4983850;28;20150;-64
2021/05/10 03:24:58;;;;;;;;;;;13.20;99.90;;;;;;4986574;28;20096;-64
2021/05/10 03:27:25;;;;;;;10.88;4.40;;;13.20;99.90;;;;;;4979854;28;19925;-64
2021/05/10 03:29:51;;;;;;;12.25;4.88;;;13.20;99.90;;;;;;4981026;28;20529;-64
2021/05/10 03:32:18;;;;;;;;;;;13.10;99.90;;;;;;4982904;28;20073;-64
2021/05/10 03:34:44;;;;;;;9.27;4.80;;;13.10;99.90;;;;;;4983703;28;19926;-64
2021/05/10 03:37:10;;;;;;;;;;;13.00;99.90;;;;;;4980533;28;20902;-64
2021/05/10 03:39:37;;;;;;;10.75;4.97;;;13.10;99.90;;;;;;4983741;28;20520;-64
2021/05/10 03:42:05;;;;;;;;;;;13.10;99.90;;;;;;4982149;28;20045;-64
2021/05/10 03:44:31;;;;;;;12.13;4.88;;;13.10;99.90;;;;;;4982024;28;19956;-64
2021/05/10 03:46:57;;;;;;;;;;;13.00;99.90;;;;;;4983693;28;20434;-64
2021/05/10 03:49:24;;;;;;;10.90;4.90;;;13.00;99.90;;;;;;4984716;28;20067;-64
2021/05/10 03:51:50;;;;;;;;;;;13.10;99.90;;;;;;4982204;28;20536;-64
2021/05/10 03:54:17;;;;;;;11.82;5.15;;;13.20;99.90;;;;;;4983883;28;20290;-65
2021/05/10 03:56:43;;;;;;;;;;;13.20;99.90;;;;;;4983273;28;20056;-64
2021/05/10 03:59:10;;;;;;;9.02;4.22;;;13.20;99.90;;;;;;4981879;28;19973;-64
2021/05/10 04:01:37;;;;;;;11.18;4.68;;;13.10;99.90;;;;;;4982448;28;20065;-65
2021/05/10 04:04:11;;;;;;;;;;;13.10;99.90;;;;;;4980722;28;20585;-64
2021/05/10 04:06:48;;;;;;;8.95;3.92;;;13.10;99.90;;;;;;4982084;28;19925;-64
2021/05/10 04:14:55;;;;;;;9.48;3.60;;;13.40;99.90;;;;;;4920605;28;20059;-64
2021/05/10 04:17:22;;;;;;;8.32;4.53;;;13.30;99.90;;;;;;4966101;28;20136;-64
2021/05/10 04:19:48;;;;;;;7.97;3.78;;;13.30;99.90;;;;;;4982632;28;20049;-64
2021/05/10 04:22:14;;;;;;;;;;;13.30;99.90;;;;;;4983777;28;20832;-64
2021/05/10 04:24:41;;;;;;;8.93;3.80;;;13.30;99.90;;;;;;4982320;28;19925;-64
2021/05/10 04:27:08;;;;;;;;;;;13.30;99.90;;;;;;4982500;28;20898;-64
2021/05/10 04:29:35;;;;;;;7.55;4.60;;;13.30;99.90;;;;;;4984246;28;20008;-64
2021/05/10 04:32:02;;;;;;;7.43;3.90;;;13.30;99.90;;;;;;4980011;28;20061;-64
2021/05/10 04:34:28;;;;;;;12.20;4.10;;;13.30;99.90;;;;;;4981889;28;20050;-64
2021/05/10 04:36:55;;;;;;;;;;;13.40;99.90;;;;;;4981912;28;20137;-64
2021/05/10 04:39:21;;;;;;;15.25;4.82;;;13.50;99.90;;;;;;4981146;28;19932;-64
2021/05/10 04:41:47;;;;;;;;;;;13.50;99.90;;;;;;4989000;28;20092;-64
2021/05/10 04:44:14;;;;;;;9.18;3.95;;;13.60;99.90;;;;;;4985306;28;19922;-64
2021/05/10 04:46:40;;;;;;;;;;;13.60;99.90;;;;;;4991789;28;20053;-64
2021/05/10 04:49:07;;;;;;;8.38;3.50;;;13.60;99.90;;;;;;4990032;28;20354;-64
2021/05/10 04:51:34;;;;;;;9.13;3.83;;;13.70;99.90;;;;;;4991815;28;20093;-64
2021/05/10 04:54:00;;;;;;;7.85;4.07;;;13.80;99.90;;;;;;4990655;28;20049;-64
2021/05/10 04:56:27;;;;;;;;;;;14.00;99.90;;;;;;4990440;28;20494;-64
2021/05/10 04:58:53;;;;;;;9.27;3.95;;;14.00;99.90;;;;;;4987737;28;19933;-64
2021/05/10 05:01:20;;;;;;;8.65;3.95;;;14.10;99.90;;;;;;4990851;28;20058;-64
2021/05/10 05:03:46;;;;;;;7.85;4.00;;;14.10;99.90;;;;;;4989301;28;20563;-64
2021/05/10 05:06:14;;;;;;;7.38;3.35;;;14.20;99.90;;;;;;4977390;28;20693;-64
2021/05/10 05:08:40;;;;;;;9.80;3.90;;;14.30;99.90;;;;;;4980111;28;20049;-64
2021/05/10 05:11:06;;;;;;;;;;;14.40;99.90;;;;;;4986109;28;20495;-64
2021/05/10 05:13:34;;;;;;;7.80;3.30;;;14.40;99.90;;;;;;4980151;28;19994;-64
2021/05/10 05:16:00;;;;;;;7.03;3.83;;;14.50;99.90;;;;;;4981888;28;20061;-64
2021/05/10 05:18:27;;;;;;;7.65;3.78;;;14.50;99.90;;;;;;4991073;28;20441;-64
2021/05/10 05:20:54;;;;;;;8.55;4.20;;;14.60;99.90;;;;;;4989900;28;20488;-65
2021/05/10 05:23:23;;;;;;;9.45;3.88;;;14.70;99.90;;;;;;4995365;28;20057;-65
2021/05/10 05:25:57;;;;;;;7.72;3.38;;;14.70;99.90;;;;;;4993912;28;20413;-64
2021/05/10 05:28:24;;;;;;;7.25;3.42;;;14.90;99.90;;;;;;4992389;28;21751;-64
2021/05/10 05:30:51;;;;;;;8.02;3.63;;;15.00;99.90;;;;;;4992134;28;20050;-64
2021/05/10 05:33:17;;;;;;;8.05;3.70;;;15.10;99.90;;;;;;4991905;28;20455;-64
2021/05/10 05:35:44;;;;;;;9.25;3.70;;;15.20;99.90;;;;;;4994847;28;20053;-64
2021/05/10 05:38:11;;;;;;;11.65;3.85;;;15.30;99.90;;;;;;4996336;28;20422;-64
2021/05/10 05:40:40;;;;;;;13.43;4.50;;;15.30;99.90;;;;;;4995484;28;20065;-64
2021/05/10 05:43:08;;;;;;;10.57;4.22;;;15.40;99.90;;;;;;4980939;28;20567;-64
2021/05/10 05:45:35;;;;;;;13.95;4.43;;;15.50;99.90;;;;;;4991224;28;20104;-64
2021/05/10 05:48:03;;;;;;;46.28;6.72;;;15.60;99.90;;;;;;4989438;28;20053;-66
2021/05/10 05:50:30;;;;;;;39.13;6.05;;;15.70;99.90;;;;;;4984332;28;20054;-66
2021/05/10 05:52:56;;;;;;;25.63;4.53;;;15.80;99.90;;;;;;4983728;28;20057;-68
2021/05/10 05:55:23;;;;;;;14.82;4.05;;;16.00;99.90;;;;;;4990184;28;20099;-65
2021/05/10 05:57:50;;;;;;;14.65;4.45;;;16.20;99.90;;;;;;4991694;28;20461;-64
2021/05/10 06:00:18;;;;;;;30.35;4.68;;;16.40;99.90;;;;;;4992849;28;20078;-67
2021/05/10 06:02:45;;;;;;;16.00;4.53;;;16.60;99.90;;;;;;4992004;28;20115;-65
2021/05/10 06:05:13;;;;;;;9.75;2.40;;;16.70;99.90;;;;;;4991991;28;20053;-65
2021/05/10 06:07:41;;;;;;;5.15;2.33;;;17.00;99.90;;;;;;4989533;28;20046;-66
2021/05/10 06:10:08;;;;;;;4.15;1.67;;;17.40;99.90;;;;;;4993104;28;20047;-65
2021/05/10 06:12:35;;;;;;;6.05;1.88;;;17.70;99.90;;;;;;4989807;28;20100;-65
2021/05/10 06:15:03;;;;;;;8.15;2.35;;;17.90;99.90;;;;;;4988022;28;20077;-69
2021/05/10 06:17:29;;;;;;;4.40;1.98;;;18.10;99.90;;;;;;4990425;28;20521;-68
2021/05/10 06:19:57;;;;;;;5.05;1.77;;;18.30;99.90;;;;;;4987562;28;20134;-68
2021/05/10 06:22:23;;;;;;;4.60;1.75;;;18.50;99.90;;;;;;4982650;28;20056;-69
2021/05/10 06:24:50;;;;;;;6.28;1.80;;;18.50;99.90;;;;;;4988130;28;20530;-68
2021/05/10 06:27:17;;;;;;;2.92;1.50;;;18.60;99.90;;;;;;4986192;28;20050;-68
2021/05/10 06:29:43;;;;;;;4.03;1.55;;;18.70;99.90;;;;;;4987085;28;20042;-68
2021/05/10 06:32:11;;;;;;;2.78;1.40;;;18.80;99.90;;;;;;4988382;28;20045;-66
2021/05/10 06:34:37;;;;;;;8.35;1.98;;;18.90;99.90;;;;;;4988474;28;20068;-65
2021/05/10 06:37:04;;;;;;;3.00;1.60;;;18.90;99.90;;;;;;4988428;28;20054;-66
2021/05/10 06:39:30;;;;;;;4.47;1.67;;;19.00;99.90;;;;;;4993978;28;20104;-68
2021/05/10 06:41:57;;;;;;;3.35;1.50;;;19.20;99.90;;;;;;4986594;28;20784;-66
2021/05/10 06:44:23;;;;;;;4.95;1.65;;;19.30;99.90;;;;;;4986710;28;20107;-68
2021/05/10 06:46:50;;;;;;;4.47;1.80;;;19.40;99.90;;;;;;4988237;28;20729;-68
2021/05/10 06:49:17;;;;;;;8.18;2.03;;;19.50;99.90;;;;;;4984351;28;20060;-67
2021/05/10 06:51:44;;;;;;;6.50;1.58;;;19.50;99.90;;;;;;4991744;28;20057;-67
2021/05/10 06:54:10;;;;;;;3.97;1.80;;;19.60;99.90;;;;;;4986696;28;20050;-71
2021/05/10 06:56:37;;;;;;;6.25;1.95;;;19.70;99.90;;;;;;4987749;28;20421;-68
2021/05/10 06:59:03;;;;;;;5.15;1.98;;;19.80;99.90;;;;;;4988916;28;20728;-67
2021/05/10 07:01:30;;;;;;;4.47;1.70;;;19.80;99.90;;;;;;4983782;28;20061;-64
2021/05/10 07:03:56;;;;;;;4.15;1.60;;;19.90;99.90;;;;;;4981986;28;20148;-66
2021/05/10 07:06:24;;;;;;;4.50;1.60;;;20.10;99.90;;;;;;4985036;28;20726;-66
2021/05/10 07:08:50;;;;;;;12.43;1.90;;;20.10;99.90;;;;;;4983792;28;20100;-66
2021/05/10 07:11:17;;;;;;;6.28;2.40;;;20.10;99.90;;;;;;4981223;28;20146;-65
2021/05/10 07:13:43;;;;;;;3.72;1.88;;;20.30;99.90;;;;;;4989187;28;20522;-65
2021/05/10 07:16:10;;;;;;;3.25;1.50;;;20.30;99.90;;;;;;4985758;28;20686;-65
2021/05/10 07:18:36;;;;;;;5.25;1.63;;;20.60;99.90;;;;;;4985443;28;20076;-66
2021/05/10 07:21:03;;;;;;;3.92;1.90;;;20.80;99.90;;;;;;4986860;28;20595;-66
2021/05/10 07:23:30;;;;;;;4.57;1.60;;;20.80;99.90;;;;;;4984864;28;20132;-66
2021/05/10 07:25:57;;;;;;;5.22;1.95;;;20.90;99.90;;;;;;4983977;28;20053;-64
2021/05/10 07:28:23;;;;;;;8.10;1.90;;;21.10;99.90;;;;;;4982324;28;20097;-68
2021/05/10 07:30:50;;;;;;;5.88;1.70;;;21.20;99.90;;;;;;4982295;28;20128;-67
2021/05/10 07:33:16;;;;;;;8.13;2.10;;;21.30;99.90;;;;;;4984498;28;20053;-67
2021/05/10 07:35:43;;;;;;;7.18;2.22;;;21.50;99.90;;;;;;4982220;28;20046;-66
2021/05/10 07:38:10;;;;;;;4.80;1.77;;;21.80;99.90;;;;;;4980507;28;20064;-66
2021/05/10 07:40:38;;;;;;;5.68;1.88;;;21.90;99.90;;;;;;4981589;28;20163;-66
2021/05/10 07:43:05;;;;;;;6.10;2.05;;;22.20;99.90;;;;;;4979701;28;20418;-66
2021/05/10 07:45:32;;;;;;;5.05;1.85;;;22.40;99.90;;;;;;4979464;28;20053;-65
2021/05/10 07:48:00;;;;;;;5.63;1.63;;;22.50;99.90;;;;;;4981761;28;20084;-65
2021/05/10 07:50:28;;;;;;;6.50;1.63;;;22.70;99.90;;;;;;4993384;28;20091;-65
2021/05/10 07:52:55;;;;;;;5.05;1.80;;;22.80;99.90;;;;;;4993875;28;20060;-64
2021/05/10 07:55:22;;;;;;;5.05;1.60;;;22.90;99.90;;;;;;4995694;28;20050;-65
2021/05/10 07:57:51;;;;;;;5.97;2.00;;;22.90;99.90;;;;;;4988522;28;20061;-64
2021/05/10 08:00:22;;;;;;;4.03;1.77;;;22.80;99.90;;;;;;4989030;28;20498;-64
2021/05/10 08:02:52;;;;;;;5.57;2.00;;;22.90;99.90;;;;;;4995605;28;20164;-62
2021/05/10 08:05:18;;;;;;;6.57;1.98;;;23.00;99.90;;;;;;4993878;28;20055;-63
2021/05/10 08:07:45;;;;;;;4.13;1.67;;;23.30;99.90;;;;;;4995163;28;20786;-63
2021/05/10 08:10:12;;;;;;;4.50;1.95;;;23.20;99.90;;;;;;4990253;28;20050;-63
2021/05/10 08:12:39;;;;;;;4.35;1.90;;;23.20;99.90;;;;;;4989177;28;20049;-65
2021/05/10 08:15:08;;;;;;;4.07;1.40;;;23.00;99.90;;;;;;4986731;28;20054;-65
2021/05/10 08:17:35;;;;;;;8.05;1.70;;;23.30;99.90;;;;;;4987394;28;20061;-67
2021/05/10 08:20:03;;;;;;;8.88;1.85;;;23.40;99.90;;;;;;4991353;28;20058;-64
2021/05/10 08:22:30;;;;;;;3.38;1.58;;;23.40;99.90;;;;;;4991324;28;20057;-64
2021/05/10 08:24:57;;;;;;;4.30;1.77;;;23.60;99.90;;;;;;4989044;28;20573;-64
2021/05/10 08:27:23;;;;;;;4.50;1.73;;;24.00;99.90;;;;;;4990139;28;20060;-64
2021/05/10 08:29:50;;;;;;;6.72;1.80;;;24.00;99.90;;;;;;4991255;28;20059;-65
2021/05/10 08:32:18;;;;;;;3.97;1.50;;;24.30;99.40;;;;;;4988729;28;20056;-64
2021/05/10 08:34:44;;;;;;;5.78;1.65;;;24.50;98.20;;;;;;4982818;28;20057;-64
2021/05/10 08:37:11;;;;;;;5.85;1.73;;;24.60;96.40;;;;;;4985137;28;20056;-64
2021/05/10 08:39:37;;;;;;;4.22;1.67;;;24.60;95.80;;;;;;4986025;28;20108;-64
2021/05/10 08:42:04;;;;;;;10.05;2.58;;;24.80;95.20;;;;;;4983744;28;20117;-64
2021/05/10 08:44:30;;;;;;;5.38;1.85;;;25.30;93.70;;;;;;4981102;28;20184;-64
2021/05/10 08:46:59;;;;;;;7.10;1.83;;;25.70;93.60;;;;;;4983187;28;20089;-64
2021/05/10 08:49:26;;;;;;;6.35;1.73;;;25.70;93.60;;;;;;4984241;28;20537;-64
2021/05/10 08:51:54;;;;;;;12.63;2.03;;;26.20;94.20;;;;;;4981906;28;20077;-65
2021/05/10 08:54:24;;;;;;;5.88;1.60;;;27.10;92.30;;;;;;4983659;28;20122;-65
2021/05/10 08:56:51;;;;;;;4.70;1.90;;;27.40;90.60;;;;;;4986694;28;20513;-64
2021/05/10 08:59:20;;;;;;;3.80;1.70;;;26.80;89.10;;;;;;4990651;28;20057;-64
2021/05/10 09:01:49;;;;;;;3.42;1.60;;;26.80;87.80;;;;;;4983151;28;20057;-65
2021/05/10 09:04:17;;;;;;;7.72;2.15;;;27.20;85.00;;;;;;4985027;28;20061;-65
2021/05/10 09:06:45;;;;;;;4.68;1.73;;;27.40;83.30;;;;;;4982006;28;20049;-65
2021/05/10 09:09:12;;;;;;;4.63;1.83;;;27.90;81.30;;;;;;4982854;28;20057;-65
2021/05/10 09:11:54;;;;;;;2.90;1.60;;;28.20;79.90;;;;;;4984300;28;20684;-65
2021/05/10 09:14:31;;;;;;;2.88;1.52;;;29.20;76.50;;;;;;4982416;28;20054;-65
2021/05/10 09:16:57;;;;;;;3.85;1.77;;;29.30;75.40;;;;;;4981696;28;20069;-65
2021/05/10 09:19:42;;;;;;;4.90;2.20;;;29.60;71.40;;;;;;4982584;28;20092;-65
2021/05/10 09:22:10;;;;;;;5.95;2.20;;;28.70;71.20;;;;;;4985605;28;20115;-65
2021/05/10 09:24:49;;;;;;;3.47;1.38;;;28.50;71.60;;;;;;4989083;28;20053;-65
2021/05/10 09:27:28;;;;;;;4.63;1.80;;;28.10;70.90;;;;;;4986394;28;20518;-65
2021/05/10 09:30:20;;;;;;;2.83;1.60;;;28.20;71.40;;;;;;4988712;28;20042;-65
2021/05/10 09:32:52;;;;;;;4.47;1.77;;;28.00;72.40;;;;;;4985710;28;20315;-65
2021/05/10 09:35:28;;;;;;;5.15;1.60;;;28.80;72.20;;;;;;4990539;28;20170;-67
2021/05/10 09:38:05;;;;;;;5.43;1.80;;;29.40;71.10;;;;;;4987121;28;20451;-67
2021/05/10 09:40:50;;;;;;;5.35;1.60;;;29.30;69.30;;;;;;4989021;28;20414;-67
2021/05/10 09:43:17;;;;;;;7.85;2.05;;;28.90;70.20;;;;;;4985186;28;20060;-67
2021/05/10 09:45:46;;;;;;;3.30;1.55;;;29.70;69.70;;;;;;4988187;28;20048;-67
2021/05/10 09:48:21;;;;;;;3.58;1.83;;;29.50;68.80;;;;;;4991312;28;20054;-67
2021/05/10 09:50:51;;;;;;;4.05;1.98;;;29.60;68.20;;;;;;4990200;28;20444;-67
2021/05/10 09:53:34;;;;;;;4.00;1.80;;;29.80;66.20;;;;;;4988139;28;20053;-67
2021/05/10 09:56:01;;;;;;;4.82;1.73;;;30.30;65.00;;;;;;4989153;28;20050;-67
2021/05/10 09:58:41;;;;;;;3.40;1.63;;;31.00;65.20;;;;;;4986546;28;20050;-67
2021/05/10 10:01:08;;;;;;;4.60;1.77;;;31.60;63.70;;;;;;4992909;28;20049;-67
2021/05/10 10:03:42;;;;;;;2.80;1.67;;;32.10;61.30;;;;;;4992651;28;20046;-68
2021/05/10 10:06:11;;;;;;;5.03;2.05;;;31.60;61.10;;;;;;4992285;28;20130;-67
2021/05/10 10:08:39;;;;;;;5.00;1.75;;;31.70;62.20;;;;;;4994178;28;20066;-68
2021/05/10 10:11:08;;;;;;;3.83;1.63;;;31.90;60.30;;;;;;4996772;28;20843;-67
2021/05/10 10:13:36;;;;;;;8.23;1.70;;;32.50;62.70;;;;;;4994636;28;20057;-67
2021/05/10 10:16:03;;;;;;;3.25;1.55;;;32.50;58.00;;;;;;4991455;28;20061;-67
2021/05/10 10:18:30;;;;;;;5.90;1.98;;;32.10;58.00;;;;;;4993169;28;20103;-67
2021/05/10 10:21:00;;;;;;;4.80;1.50;;;31.80;58.80;;;;;;4992664;28;20100;-67
2021/05/10 10:23:28;;;;;;;9.43;1.70;;;32.50;57.50;;;;;;4994504;28;20148;-67
2021/05/10 10:25:57;;;;;;;3.83;1.55;;;32.60;57.00;;;;;;4993925;28;20081;-67
2021/05/10 10:28:26;;;;;;;6.32;1.60;;;31.40;57.30;;;;;;4994334;28;20398;-67
2021/05/10 10:30:58;;;;;;;7.50;1.90;;;31.80;58.80;;;;;;4996107;28;20065;-67
2021/05/10 10:33:29;;;;;;;7.72;2.05;;;32.50;56.70;;;;;;4994159;28;20069;-67
2021/05/10 10:35:56;;;;;;;3.85;1.67;;;32.00;56.80;;;;;;4991546;28;20060;-67
2021/05/10 10:38:31;;;;;;;6.70;2.00;;;32.10;56.90;;;;;;4989974;28;20064;-67
2021/05/10 10:41:19;;;;;;;5.18;2.10;;;32.90;57.00;;;;;;4992286;28;20045;-67
2021/05/10 10:43:46;;;;;;;6.20;1.80;;;33.30;54.80;;;;;;4991975;28;20072;-67
2021/05/10 10:46:30;;;;;;;7.10;1.58;;;33.60;56.10;;;;;;4992101;28;20056;-67
2021/05/10 10:48:59;;;;;;;9.48;1.92;;;34.10;54.40;;;;;;4989303;28;20575;-67
2021/05/10 10:51:26;;;;;;;5.93;1.90;;;34.30;53.20;;;;;;4992020;28;20061;-67
2021/05/10 10:53:55;;;;;;;4.35;1.65;;;34.10;53.50;;;;;;4991992;28;20061;-65
2021/05/10 10:56:58;;;;;;;4.68;1.75;;;32.80;54.00;;;;;;4989035;28;20046;-65
2021/05/10 10:59:29;;;;;;;5.22;1.63;;;32.20;55.30;;;;;;4911189;29;20242;-65
2021/05/10 11:01:57;;;;;;;5.63;1.90;;;32.30;55.00;;;;;;4908223;29;20083;-65
2021/05/10 11:04:26;;;;;;;7.55;1.70;;;32.40;55.20;;;;;;4943889;28;20045;-65
2021/05/10 11:06:53;;;;;;;7.75;2.15;;;33.30;57.00;;;;;;4987325;28;20064;-65
2021/05/10 11:09:53;;;;;;;4.03;1.45;;;34.50;54.70;;;;;;4983918;28;20046;-65
2021/05/10 11:12:48;;;;;;;6.13;1.92;;;34.80;53.80;;;;;;4982177;28;20818;-65
2021/05/10 11:15:48;;;;;;;2.03;1.45;;;34.90;52.60;;;;;;4981031;28;20050;-65
2021/05/10 11:18:35;;;;;;;2.35;1.50;;;34.80;53.40;;;;;;4980396;28;20046;-66
2021/05/10 11:21:02;;;;;;;5.20;1.73;;;34.60;53.90;;;;;;4981099;28;20041;-66
2021/05/10 11:23:30;;;;;;;3.45;1.55;;;34.20;54.60;;;;;;4981640;28;20089;-66
2021/05/10 11:25:57;;;;;;;5.70;1.80;;;34.50;56.20;;;;;;4981263;28;20088;-65
2021/05/10 11:28:45;;;;;;;4.47;1.70;;;34.70;55.50;;;;;;4978431;28;20076;-65
2021/05/10 11:31:13;;;;;;;4.45;1.60;;;34.90;53.50;;;;;;4982667;28;20057;-65
2021/05/10 11:34:03;;;;;;;3.97;1.73;;;33.10;54.50;;;;;;4980074;28;20728;-66
2021/05/10 11:36:31;;;;;;;3.83;1.60;;;34.00;56.50;;;;;;4981379;28;21196;-65
2021/05/10 11:38:59;;;;;;;4.75;1.73;;;34.30;54.40;;;;;;4981145;28;20077;-65
2021/05/10 11:41:29;;;;;;;4.15;1.77;;;34.50;54.50;;;;;;4983703;28;20049;-65
2021/05/10 11:43:58;;;;;;;5.60;1.70;;;34.60;54.00;;;;;;4980949;28;20081;-65
2021/05/10 11:46:38;;;;;;;4.65;2.10;;;34.80;54.60;;;;;;4981549;28;20050;-66
2021/05/10 11:49:06;;;;;;;5.13;2.10;;;35.10;54.30;;;;;;4980526;28;20057;-65
2021/05/10 11:51:36;;;;;;;5.95;2.03;;;34.80;54.30;;;;;;4980846;28;20057;-65
2021/05/10 11:54:05;;;;;;;6.85;1.70;;;34.90;53.30;;;;;;4980879;28;20553;-66
2021/05/10 11:56:35;;;;;;;5.68;1.90;;;35.00;54.80;;;;;;4981509;28;20061;-65
2021/05/10 11:59:10;;;;;;;5.88;1.75;;;35.20;54.70;;;;;;4980505;28;20080;-65
2021/05/10 12:01:39;;;;;;;5.82;2.78;;;35.30;53.60;;;;;;4979974;28;20080;-65
2021/05/10 12:04:20;;;;;;;3.65;1.52;;;35.40;54.10;;;;;;4979458;28;20053;-66
2021/05/10 12:06:47;;;;;;;2.55;1.60;;;35.50;53.30;;;;;;4970597;28;20068;-65
2021/05/10 12:09:43;;;;;;;4.18;1.73;;;35.20;53.90;;;;;;4976017;28;20840;-65
2021/05/10 12:12:37;;;;;;;6.18;1.80;;;34.90;52.80;;;;;;4974909;28;20169;-68
2021/05/10 12:15:16;;;;;;;5.05;1.88;;;34.80;53.00;;;;;;4944052;28;20438;-65
2021/05/10 12:17:44;;;;;;;5.20;1.92;;;35.20;53.30;;;;;;4973564;28;20081;-65
2021/05/10 12:20:16;;;;;;;6.20;1.80;;;35.30;54.40;;;;;;4980809;28;20048;-66
2021/05/10 12:22:44;;;;;;;7.38;1.90;;;35.70;53.90;;;;;;4981146;28;20064;-65
2021/05/10 12:25:22;;;;;;;2.50;1.67;;;35.30;53.50;;;;;;4985087;28;21520;-65
2021/05/10 12:27:55;;;;;;;3.22;1.55;;;34.10;53.80;;;;;;4982229;28;20053;-65
2021/05/10 12:30:27;;;;;;;4.22;1.50;;;33.80;54.90;;;;;;4985989;28;20050;-68
2021/05/10 12:32:55;;;;;;;4.72;2.25;;;33.70;54.10;;;;;;4990875;28;20080;-68
2021/05/10 12:35:25;;;;;;;4.00;1.88;;;32.90;55.60;;;;;;4991655;28;20093;-65
2021/05/10 12:37:54;;;;;;;9.90;2.10;;;32.90;55.40;;;;;;4984699;28;20082;-65
2021/05/10 12:40:22;;;;;;;8.45;2.35;;;33.10;55.50;;;;;;4987955;28;20116;-65
2021/05/10 12:43:10;;;;;;;4.03;1.70;;;33.30;55.90;;;;;;4989377;28;20502;-65
2021/05/10 12:45:39;;;;;;;6.60;1.92;;;33.60;55.60;;;;;;4987719;28;20545;-66
2021/05/10 12:48:14;;;;;;;4.13;1.67;;;32.90;55.10;;;;;;4992737;28;20049;-67
2021/05/10 12:50:43;;;;;;;4.80;1.63;;;33.40;56.00;;;;;;4999169;28;20061;-67
2021/05/10 12:53:10;;;;;;;5.25;1.88;;;33.50;54.60;;;;;;4998943;28;20134;-67
2021/05/10 12:55:38;;;;;;;6.78;1.65;;;33.60;53.80;;;;;;4998154;28;20049;-66
2021/05/10 12:58:18;;;;;;;4.72;1.50;;;33.60;53.90;;;;;;4995765;28;20053;-67
2021/05/10 13:00:46;;;;;;;3.72;1.50;;;33.10;53.10;;;;;;4993830;28;20046;-67
2021/05/10 13:03:31;;;;;;;4.60;1.83;;;32.70;53.90;;;;;;4999063;28;20046;-66
2021/05/10 13:05:58;;;;;;;9.15;1.85;;;31.20;55.10;;;;;;4993560;28;20084;-66